In Rescue
 
Open Full Screen Window  High Contrast Mode
Wind Gusting 00 knots
09
March 01, 2024 5:07 PM EST
Weather Information
Wind Direction
  170 °
Wind Speed
  09 kt (10 mph)
Wind Gust
  00 kt (0 mph)
Altimeter
30.13 in
Visibility
10 SM
Temperature
07° C
45° F
Dewpoint
-10° C
14° F
Humidity
29%
Sky Condition
Broken @ 11,000 ft
Scattered @ 9,500 ft
Scattered @ 8,000 ft
VFR

METAR KY70 012207Z AUTO 17009KT 10SM SCT080 SCT095 BKN110 07/M10 A3013 RMK AO2 T00741099

FAA Disclaimer: The data displayed is for advisory purposes only and is not to be used for flight planning or operations.